Matinburg, Texas
Current Conditions -  °F | °C
As of 5:15 PM on Saturday 25 Oct 2014 (Local Time) from KOSA Reporting Station
Clear Clear  
Wind Chill: 84°   Ceiling: Unl
Heat Index: 85°   Visibility: 10mi
Dew Point: 61°   Wind: 3mph
Humidity: 45%   Direction: 250°WSW
Pressure: 30.08"   Gusts: NA
Location:  32.9352°N, 94.9553°W
Report Text: KOSA 252215Z AUTO 25003KT 10SM CLR 29/16 A3008 RMK AO1 T02910160
Loading
Personal Weather Stations






























Interactive Weather Map
Tropical Storm Tracking
New forecast layout! Learn more

10-Day Weather Forecast

Advertisements
Track Severe Weather on mobile